createdAt,value
2022-10-10T00:01:37.209Z,21.60
2022-10-10T00:04:06.210Z,21.60
2022-10-10T00:06:34.962Z,21.20
2022-10-10T00:09:05.700Z,19.80
2022-10-10T00:11:34.582Z,19.60
2022-10-10T00:14:02.880Z,20.50
2022-10-10T00:16:30.898Z,22.40
2022-10-10T00:18:58.905Z,18.30
2022-10-10T00:21:26.917Z,21.50
2022-10-10T00:23:54.686Z,29.00
2022-10-10T00:26:22.757Z,20.60
2022-10-10T00:28:51.182Z,27.10
2022-10-10T00:31:19.113Z,21.60
2022-10-10T00:33:47.458Z,26.70
2022-10-10T00:36:15.807Z,23.00
2022-10-10T00:38:43.682Z,24.40
2022-10-10T00:41:11.783Z,21.80
2022-10-10T00:43:39.834Z,20.50
2022-10-10T00:46:08.158Z,20.60
2022-10-10T00:48:41.432Z,22.10
2022-10-10T00:51:13.004Z,18.50
2022-10-10T00:54:18.123Z,17.00
2022-10-10T00:57:04.753Z,23.70
2022-10-10T00:59:34.376Z,22.00
2022-10-10T01:02:02.757Z,19.90
2022-10-10T01:04:42.937Z,22.10
2022-10-10T01:07:19.172Z,18.90
2022-10-10T01:09:49.591Z,18.40
2022-10-10T01:12:38.988Z,22.80
2022-10-10T01:15:27.065Z,28.90
2022-10-10T01:18:22.359Z,23.80
2022-10-10T01:20:59.913Z,24.20
2022-10-10T01:23:52.924Z,29.10
2022-10-10T01:26:49.112Z,21.20
2022-10-10T01:29:30.305Z,26.30
2022-10-10T01:32:14.783Z,24.90
2022-10-10T01:35:00.650Z,21.80
2022-10-10T01:37:52.636Z,18.70
2022-10-10T01:40:23.441Z,17.90
2022-10-10T01:42:56.041Z,19.40
2022-10-10T01:45:25.733Z,22.20
2022-10-10T01:47:57.613Z,19.00
2022-10-10T01:50:29.973Z,24.40
2022-10-10T01:52:58.185Z,20.80
2022-10-10T01:55:57.536Z,19.80
2022-10-10T01:58:38.282Z,16.00
2022-10-10T02:01:21.760Z,21.30
2022-10-10T02:04:13.032Z,14.20
2022-10-10T02:06:52.226Z,19.60
2022-10-10T02:09:28.351Z,24.40
2022-10-10T02:11:59.314Z,19.00
2022-10-10T02:14:42.542Z,18.20
2022-10-10T02:17:16.051Z,18.60
2022-10-10T02:19:53.122Z,24.50
2022-10-10T02:22:23.972Z,25.90
2022-10-10T02:24:53.463Z,20.50
2022-10-10T02:27:40.951Z,23.50
2022-10-10T02:30:10.265Z,21.10
2022-10-10T02:32:48.442Z,23.90
2022-10-10T02:35:27.820Z,27.10
2022-10-10T02:37:56.978Z,23.50
2022-10-10T02:40:29.104Z,18.00
2022-10-10T02:43:00.799Z,24.10
2022-10-10T02:45:30.946Z,16.50
2022-10-10T02:48:03.411Z,17.30
2022-10-10T02:50:32.838Z,16.00
2022-10-10T02:53:01.199Z,21.50
2022-10-10T02:55:29.378Z,15.80
2022-10-10T02:57:57.515Z,22.80
2022-10-10T03:00:25.562Z,20.80
2022-10-10T03:02:54.004Z,18.50
2022-10-10T03:05:22.349Z,25.30
2022-10-10T03:07:50.740Z,25.30
2022-10-10T03:10:19.597Z,23.20
2022-10-10T03:12:48.366Z,21.20
2022-10-10T03:15:16.783Z,20.90
2022-10-10T03:17:45.395Z,16.10
2022-10-10T03:20:13.816Z,25.20
2022-10-10T03:22:41.905Z,21.30
2022-10-10T03:25:09.871Z,22.90
2022-10-10T03:27:38.055Z,19.90
2022-10-10T03:30:06.930Z,19.00
2022-10-10T03:32:35.231Z,19.90
2022-10-10T03:35:04.059Z,16.40
2022-10-10T03:37:32.415Z,17.70
2022-10-10T03:40:00.604Z,12.80
2022-10-10T03:42:28.764Z,18.00
2022-10-10T03:44:57.134Z,22.80
2022-10-10T03:47:25.098Z,19.00
2022-10-10T03:49:53.146Z,16.00
2022-10-10T03:52:22.049Z,13.70
2022-10-10T03:54:50.091Z,19.40
2022-10-10T03:57:18.143Z,11.80
2022-10-10T03:59:46.374Z,22.30
2022-10-10T04:02:14.948Z,13.90
2022-10-10T04:04:43.453Z,15.80
2022-10-10T04:07:11.503Z,17.30
2022-10-10T04:09:39.621Z,16.90
2022-10-10T04:12:07.749Z,23.00
2022-10-10T04:14:35.774Z,23.30
2022-10-10T04:17:03.797Z,16.60
2022-10-10T04:19:31.813Z,19.90
2022-10-10T04:22:00.638Z,18.60
2022-10-10T04:24:28.924Z,23.40
2022-10-10T04:26:57.487Z,18.90
2022-10-10T04:29:26.283Z,23.20
2022-10-10T04:31:55.105Z,19.30
2022-10-10T04:34:23.481Z,24.80
2022-10-10T04:36:51.954Z,16.50
2022-10-10T04:39:21.217Z,21.60
2022-10-10T04:41:50.300Z,21.30
2022-10-10T04:44:19.666Z,16.00
2022-10-10T04:46:48.044Z,18.80
2022-10-10T04:49:16.631Z,19.60
2022-10-10T04:51:46.213Z,20.20
2022-10-10T04:54:15.339Z,20.70
2022-10-10T04:56:44.663Z,19.60
2022-10-10T04:59:13.288Z,24.30
2022-10-10T05:01:41.875Z,17.70
2022-10-10T05:04:13.632Z,21.70
2022-10-10T05:06:42.577Z,22.90
2022-10-10T05:09:11.276Z,39.40
2022-10-10T05:11:40.176Z,26.00
2022-10-10T05:14:08.993Z,27.30
2022-10-10T05:16:37.361Z,20.10
2022-10-10T05:19:05.661Z,20.70
2022-10-10T05:21:34.239Z,31.00
2022-10-10T05:24:03.632Z,23.00
2022-10-10T05:26:32.315Z,20.00
2022-10-10T05:29:01.862Z,22.10
2022-10-10T05:31:31.043Z,17.00
2022-10-10T05:33:59.772Z,15.20
2022-10-10T05:36:28.229Z,22.80
2022-10-10T05:38:58.132Z,19.40
2022-10-10T05:41:26.696Z,25.20
2022-10-10T05:43:55.689Z,19.60
2022-10-10T05:46:24.913Z,21.10
2022-10-10T05:48:54.168Z,28.60
2022-10-10T05:51:23.715Z,26.90
2022-10-10T05:53:52.232Z,28.30
2022-10-10T05:56:20.839Z,28.70
2022-10-10T05:58:51.719Z,32.10
2022-10-10T06:01:20.062Z,26.70
2022-10-10T06:03:52.983Z,31.00
2022-10-10T06:06:22.034Z,24.10
2022-10-10T06:08:50.399Z,23.70
2022-10-10T06:11:20.647Z,21.20
2022-10-10T06:13:52.890Z,33.20
2022-10-10T06:16:23.206Z,46.30
2022-10-10T06:18:51.738Z,51.50
2022-10-10T06:21:21.278Z,37.20
2022-10-10T06:23:50.778Z,46.00
2022-10-10T06:26:19.536Z,52.30
2022-10-10T06:28:51.122Z,46.80
2022-10-10T06:31:19.900Z,44.80
2022-10-10T06:33:49.455Z,46.70
2022-10-10T06:36:18.234Z,69.00
2022-10-10T06:38:46.795Z,52.10
2022-10-10T06:41:15.290Z,61.50
2022-10-10T06:43:44.515Z,49.50
2022-10-10T06:46:13.753Z,48.50
2022-10-10T06:48:42.286Z,46.20
2022-10-10T06:51:16.515Z,53.90
2022-10-10T06:53:49.087Z,45.00
2022-10-10T06:56:27.461Z,50.30
2022-10-10T06:58:57.077Z,44.60
2022-10-10T07:01:26.677Z,46.50
2022-10-10T07:03:56.233Z,54.10
2022-10-10T07:06:25.542Z,58.10
2022-10-10T07:08:55.823Z,43.80
2022-10-10T07:11:25.949Z,50.40
2022-10-10T07:13:55.238Z,48.00
2022-10-10T07:16:24.827Z,65.30
2022-10-10T07:18:53.446Z,53.90
2022-10-10T07:21:21.849Z,39.50
2022-10-10T07:23:50.425Z,30.70
2022-10-10T07:26:22.552Z,43.00
2022-10-10T07:28:51.472Z,32.00
2022-10-10T07:31:20.468Z,25.50
2022-10-10T07:33:50.873Z,33.60
2022-10-10T07:36:19.952Z,19.60
2022-10-10T07:38:53.375Z,19.80
2022-10-10T07:41:23.095Z,17.00
2022-10-10T07:43:56.828Z,21.50
2022-10-10T07:46:25.882Z,21.50
2022-10-10T07:48:56.206Z,17.30
2022-10-10T07:51:25.064Z,25.30
2022-10-10T07:53:54.054Z,14.70
2022-10-10T07:56:23.810Z,14.00
2022-10-10T07:58:54.530Z,13.60
2022-10-10T08:01:23.944Z,16.40
2022-10-10T08:03:52.749Z,15.70
2022-10-10T08:06:21.482Z,12.10
2022-10-10T08:08:53.620Z,18.90
2022-10-10T08:11:23.154Z,23.90
2022-10-10T08:13:53.012Z,18.20
2022-10-10T08:16:21.902Z,21.20
2022-10-10T08:18:50.612Z,19.90
2022-10-10T08:21:21.133Z,16.40
2022-10-10T08:23:49.813Z,21.40
2022-10-10T08:26:20.455Z,20.50
2022-10-10T08:28:51.505Z,23.10
2022-10-10T08:31:22.736Z,19.00
2022-10-10T08:33:52.869Z,23.60
2022-10-10T08:36:25.070Z,22.90
2022-10-10T08:39:01.820Z,20.50
2022-10-10T08:41:42.465Z,24.00
2022-10-10T08:44:41.412Z,22.20
2022-10-10T08:47:10.558Z,23.40
2022-10-10T08:50:02.269Z,21.20
2022-10-10T08:52:40.052Z,21.20
2022-10-10T08:55:25.879Z,19.00
2022-10-10T08:58:16.487Z,22.90
2022-10-10T09:00:49.910Z,24.20
2022-10-10T09:03:35.769Z,23.00
2022-10-10T09:06:11.778Z,22.60
2022-10-10T09:08:52.629Z,17.80
2022-10-10T09:11:43.707Z,25.30
2022-10-10T09:14:20.940Z,13.70
2022-10-10T09:17:00.108Z,20.20
2022-10-10T09:19:54.500Z,15.80
2022-10-10T09:22:28.276Z,21.10
2022-10-10T09:25:21.614Z,19.20
2022-10-10T09:28:17.093Z,20.30
2022-10-10T09:30:58.098Z,19.20
2022-10-10T09:33:36.868Z,21.30
2022-10-10T09:36:11.396Z,18.60
2022-10-10T09:38:53.187Z,23.70
2022-10-10T09:41:35.673Z,23.30
2022-10-10T09:44:11.018Z,26.90
2022-10-10T09:46:40.086Z,24.60
2022-10-10T09:49:15.065Z,23.30
2022-10-10T09:51:44.940Z,21.70
2022-10-10T09:54:21.238Z,22.20
2022-10-10T09:56:56.531Z,23.40
2022-10-10T09:59:43.800Z,25.40
2022-10-10T10:02:18.538Z,29.90
2022-10-10T10:04:50.628Z,24.40
2022-10-10T10:07:25.195Z,22.70
2022-10-10T10:10:01.671Z,24.50
2022-10-10T10:12:41.190Z,27.90
2022-10-10T10:15:36.435Z,18.50
2022-10-10T10:18:21.834Z,26.90
2022-10-10T10:20:53.022Z,19.20
2022-10-10T10:23:32.136Z,22.20
2022-10-10T10:26:03.913Z,24.80
2022-10-10T10:28:41.578Z,25.20
2022-10-10T10:31:23.823Z,21.70
2022-10-10T10:34:04.387Z,17.70
2022-10-10T10:36:48.897Z,23.40
2022-10-10T10:39:25.324Z,18.40
2022-10-10T10:42:19.235Z,19.00
2022-10-10T10:45:00.399Z,13.60
2022-10-10T10:48:01.433Z,21.60
2022-10-10T10:50:40.442Z,20.70
2022-10-10T10:53:38.304Z,18.30
2022-10-10T10:56:28.874Z,23.40
2022-10-10T10:59:36.322Z,24.00
2022-10-10T11:02:43.419Z,24.20
2022-10-10T11:05:41.941Z,22.80
2022-10-10T11:08:26.800Z,27.10
2022-10-10T11:11:10.878Z,22.70
2022-10-10T11:14:15.133Z,19.10
2022-10-10T11:16:54.043Z,20.90
2022-10-10T11:19:56.745Z,13.90
2022-10-10T11:22:48.055Z,13.30
2022-10-10T11:25:28.325Z,17.40
2022-10-10T11:28:26.895Z,18.70
2022-10-10T11:31:01.146Z,16.60
2022-10-10T11:33:34.811Z,16.90
2022-10-10T11:36:15.362Z,21.60
2022-10-10T11:39:00.870Z,19.40
2022-10-10T11:41:55.461Z,11.80
2022-10-10T11:44:52.712Z,20.50
2022-10-10T11:47:41.751Z,17.50
2022-10-10T11:50:16.307Z,17.50
2022-10-10T11:53:22.461Z,22.00
2022-10-10T11:56:00.297Z,19.60
2022-10-10T11:58:43.148Z,16.00
2022-10-10T12:01:34.384Z,21.90
2022-10-10T12:04:04.143Z,19.30
2022-10-10T12:06:48.908Z,16.80
2022-10-10T12:09:35.268Z,19.90
2022-10-10T12:12:45.249Z,21.60
2022-10-10T12:15:26.841Z,23.00
2022-10-10T12:17:58.086Z,17.80
2022-10-10T12:20:42.734Z,14.30
2022-10-10T12:23:15.471Z,16.20
2022-10-10T12:25:48.534Z,19.00
2022-10-10T12:28:59.000Z,22.50
2022-10-10T12:31:31.571Z,22.10
2022-10-10T12:34:23.901Z,13.20
2022-10-10T12:37:20.499Z,14.40
2022-10-10T12:40:12.911Z,13.60
2022-10-10T12:43:02.405Z,17.70
2022-10-10T12:45:34.624Z,14.70
2022-10-10T12:48:18.879Z,21.30
2022-10-10T12:51:01.055Z,14.20
2022-10-10T12:53:33.923Z,23.60
2022-10-10T12:56:04.931Z,19.30
2022-10-10T12:58:40.203Z,21.50
2022-10-10T13:01:25.983Z,24.90
2022-10-10T13:04:04.316Z,17.40
2022-10-10T13:06:45.190Z,17.30
2022-10-10T13:09:25.796Z,17.70
2022-10-10T13:12:03.523Z,18.10
2022-10-10T13:14:43.755Z,17.50
2022-10-10T13:17:42.658Z,15.50
2022-10-10T13:20:38.886Z,20.00
2022-10-10T13:25:49.300Z,20.90
2022-10-10T13:28:22.932Z,15.10
2022-10-10T13:30:52.878Z,16.90
2022-10-10T13:33:25.426Z,16.90
2022-10-10T13:36:06.289Z,22.40
2022-10-10T13:38:36.715Z,20.50
2022-10-10T13:41:06.202Z,16.30
2022-10-10T13:43:35.670Z,16.20
2022-10-10T13:46:04.947Z,14.60
2022-10-10T13:48:37.054Z,17.10
2022-10-10T13:51:12.141Z,11.30
2022-10-10T13:53:52.332Z,22.10
2022-10-10T13:56:41.625Z,21.20
2022-10-10T13:59:14.677Z,23.30
2022-10-10T14:01:49.902Z,19.90
2022-10-10T14:04:33.649Z,21.40
2022-10-10T14:07:24.389Z,19.10
2022-10-10T14:10:01.210Z,15.90
2022-10-10T14:12:42.031Z,15.10
2022-10-10T14:15:42.532Z,15.90
2022-10-10T14:18:19.488Z,20.10
2022-10-10T14:20:51.617Z,15.80
2022-10-10T14:23:23.647Z,18.70
2022-10-10T14:25:53.388Z,17.10
2022-10-10T14:28:30.921Z,15.60
2022-10-10T14:31:01.480Z,15.20
2022-10-10T14:33:33.678Z,16.30
2022-10-10T14:36:07.494Z,16.80
2022-10-10T14:38:40.420Z,21.10
2022-10-10T14:41:13.468Z,14.50
2022-10-10T14:43:45.677Z,12.20
2022-10-10T14:46:19.325Z,17.90
2022-10-10T14:48:47.269Z,15.90
2022-10-10T14:51:33.963Z,15.20
2022-10-10T14:54:11.891Z,19.10
2022-10-10T14:57:06.887Z,17.20
2022-10-10T14:59:46.301Z,16.00
2022-10-10T15:02:21.059Z,18.30
2022-10-10T15:04:50.338Z,13.80
2022-10-10T15:07:19.690Z,13.70
2022-10-10T15:10:27.604Z,18.20
2022-10-10T15:12:44.135Z,18.40
2022-10-10T15:15:13.828Z,29.10
2022-10-10T15:17:42.392Z,23.70
2022-10-10T15:20:12.732Z,19.90
2022-10-10T15:22:42.192Z,21.80
2022-10-10T15:25:10.613Z,27.90
2022-10-10T15:27:39.178Z,37.10
2022-10-10T15:30:08.821Z,22.30
2022-10-10T15:32:41.348Z,26.00
2022-10-10T15:35:21.890Z,29.40
2022-10-10T15:37:50.106Z,18.60
2022-10-10T15:40:21.957Z,20.80
2022-10-10T15:42:51.258Z,33.00
2022-10-10T15:45:37.389Z,20.00
2022-10-10T15:48:08.156Z,22.80
2022-10-10T15:50:42.344Z,21.10
2022-10-10T15:53:10.417Z,25.00
2022-10-10T15:55:46.902Z,28.20
2022-10-10T15:58:16.036Z,25.40
2022-10-10T16:00:45.176Z,22.80
2022-10-10T16:03:14.955Z,25.00
2022-10-10T16:05:43.548Z,21.00
2022-10-10T16:08:12.477Z,22.40
2022-10-10T16:10:43.227Z,28.60
2022-10-10T16:13:12.187Z,27.80
2022-10-10T16:15:40.484Z,25.80
2022-10-10T16:18:08.411Z,33.30
2022-10-10T16:20:39.329Z,38.60
2022-10-10T16:23:07.532Z,31.00
2022-10-10T16:25:35.365Z,33.40
2022-10-10T16:28:03.378Z,27.20
2022-10-10T16:30:31.489Z,26.60
2022-10-10T16:32:59.617Z,29.80
2022-10-10T16:35:27.594Z,27.70
2022-10-10T16:37:55.443Z,32.90
2022-10-10T16:40:23.875Z,32.00
2022-10-10T16:42:52.139Z,30.60
2022-10-10T16:45:20.064Z,32.30
2022-10-10T16:47:48.413Z,39.00
2022-10-10T16:50:16.378Z,31.60
2022-10-10T16:52:44.435Z,36.50
2022-10-10T16:55:13.053Z,28.80
2022-10-10T16:57:41.162Z,31.20
2022-10-10T17:00:10.122Z,44.10
2022-10-10T17:02:42.321Z,44.00
2022-10-10T17:05:10.401Z,47.90
2022-10-10T17:07:38.258Z,50.10
2022-10-10T17:10:06.818Z,31.00
2022-10-10T17:12:34.827Z,46.60
2022-10-10T17:15:02.804Z,28.50
2022-10-10T17:17:30.780Z,44.30
2022-10-10T17:19:58.617Z,34.50
2022-10-10T17:22:26.441Z,41.50
2022-10-10T17:24:55.008Z,42.90
2022-10-10T17:27:23.810Z,32.60
2022-10-10T17:29:53.665Z,38.60
2022-10-10T17:32:22.179Z,39.60
2022-10-10T17:34:50.172Z,40.10
2022-10-10T17:37:18.198Z,43.50
2022-10-10T17:39:46.535Z,44.40
2022-10-10T17:42:14.505Z,48.50
2022-10-10T17:44:48.324Z,54.30
2022-10-10T17:47:19.619Z,39.90
2022-10-10T17:49:47.551Z,47.70
2022-10-10T17:52:20.369Z,48.50
2022-10-10T17:54:50.300Z,49.30
2022-10-10T17:57:19.002Z,52.80
2022-10-10T17:59:46.907Z,40.90
2022-10-10T18:02:17.574Z,45.40
2022-10-10T18:04:46.005Z,45.90
2022-10-10T18:07:15.222Z,39.90
2022-10-10T18:09:43.448Z,39.70
2022-10-10T18:12:11.791Z,41.00
2022-10-10T18:14:39.798Z,45.60
2022-10-10T18:17:07.630Z,39.60
2022-10-10T18:19:35.456Z,43.70
2022-10-10T18:22:04.516Z,58.20
2022-10-10T18:24:32.443Z,40.10
2022-10-10T18:27:00.406Z,50.70
2022-10-10T18:29:28.604Z,41.70
2022-10-10T18:31:56.703Z,47.60
2022-10-10T18:34:24.767Z,46.10
2022-10-10T18:36:52.629Z,43.40
2022-10-10T18:39:20.666Z,48.90
2022-10-10T18:41:48.768Z,46.10
2022-10-10T18:44:18.552Z,41.70
2022-10-10T18:46:46.563Z,66.90
2022-10-10T18:49:14.931Z,43.00
2022-10-10T18:51:43.825Z,42.90
2022-10-10T18:54:15.426Z,37.60
2022-10-10T18:56:44.967Z,40.10
2022-10-10T18:59:19.979Z,51.70
2022-10-10T19:01:48.041Z,46.40
2022-10-10T19:04:17.617Z,45.80
2022-10-10T19:06:45.563Z,40.90
2022-10-10T19:09:15.807Z,50.00
2022-10-10T19:11:46.510Z,38.90
2022-10-10T19:14:17.144Z,43.60
2022-10-10T19:16:46.759Z,51.70
2022-10-10T19:19:18.043Z,50.90
2022-10-10T19:21:48.077Z,48.80
2022-10-10T19:24:21.004Z,37.30
2022-10-10T19:26:53.303Z,35.40
2022-10-10T19:29:22.385Z,46.40
2022-10-10T19:31:51.198Z,45.30
2022-10-10T19:34:19.314Z,44.10
2022-10-10T19:36:47.493Z,43.20
2022-10-10T19:39:15.259Z,40.60
2022-10-10T19:41:43.345Z,42.50
2022-10-10T19:44:11.198Z,40.20
2022-10-10T19:46:39.090Z,38.30
2022-10-10T19:49:06.931Z,35.10
2022-10-10T19:51:34.710Z,32.80
2022-10-10T19:54:02.668Z,49.70
2022-10-10T19:56:30.545Z,39.30
2022-10-10T19:59:00.845Z,41.80
2022-10-10T20:01:30.259Z,44.90
2022-10-10T20:03:59.959Z,41.40
2022-10-10T20:06:27.982Z,44.80
2022-10-10T20:08:56.582Z,47.80
2022-10-10T20:11:26.575Z,40.70
2022-10-10T20:13:56.000Z,41.40
2022-10-10T20:16:26.383Z,38.80
2022-10-10T20:18:56.514Z,37.10
2022-10-10T20:21:32.521Z,39.10
2022-10-10T20:24:02.919Z,43.70
2022-10-10T20:26:30.690Z,41.90
2022-10-10T20:28:59.459Z,49.20
2022-10-10T20:31:30.163Z,42.10
2022-10-10T20:34:00.969Z,43.50
2022-10-10T20:36:33.726Z,50.90
2022-10-10T20:39:06.498Z,49.10
2022-10-10T20:41:36.208Z,37.40
2022-10-10T20:44:05.912Z,37.10
2022-10-10T20:46:35.982Z,38.10
2022-10-10T20:49:07.504Z,37.30
2022-10-10T20:51:35.330Z,38.60
2022-10-10T20:54:05.725Z,46.10
2022-10-10T20:56:35.571Z,38.80
2022-10-10T20:59:03.621Z,41.30
2022-10-10T21:01:31.552Z,45.20
2022-10-10T21:04:00.617Z,37.20
2022-10-10T21:06:34.626Z,30.80
2022-10-10T21:09:06.561Z,35.40
2022-10-10T21:11:35.631Z,32.60
2022-10-10T21:14:03.482Z,32.10
2022-10-10T21:16:34.482Z,34.60
2022-10-10T21:19:03.735Z,35.60
2022-10-10T21:21:34.963Z,44.60
2022-10-10T21:24:06.469Z,33.00
2022-10-10T21:26:34.668Z,38.70
2022-10-10T21:29:03.118Z,42.40
2022-10-10T21:31:36.905Z,42.40
2022-10-10T21:34:11.231Z,40.60
2022-10-10T21:36:39.750Z,40.90
2022-10-10T21:39:08.074Z,46.00
2022-10-10T21:41:36.947Z,41.00
2022-10-10T21:44:06.233Z,34.30
2022-10-10T21:46:37.051Z,45.90
2022-10-10T21:49:07.972Z,39.90
2022-10-10T21:51:41.748Z,32.30
2022-10-10T21:54:10.161Z,36.00
2022-10-10T21:56:38.783Z,36.70
2022-10-10T21:59:06.892Z,40.70
2022-10-10T22:01:35.011Z,45.20
2022-10-10T22:04:04.075Z,39.90
2022-10-10T22:06:32.485Z,47.90
2022-10-10T22:09:02.005Z,40.40
2022-10-10T22:11:32.228Z,46.50
2022-10-10T22:14:02.682Z,39.70
2022-10-10T22:16:34.841Z,37.80
2022-10-10T22:19:03.301Z,46.30
2022-10-10T22:21:32.325Z,45.90
2022-10-10T22:24:02.833Z,45.00
2022-10-10T22:26:31.296Z,43.20
2022-10-10T22:28:59.363Z,41.30
2022-10-10T22:31:27.532Z,45.00
2022-10-10T22:33:55.359Z,46.60
2022-10-10T22:36:23.157Z,41.70
2022-10-10T22:38:51.033Z,43.10
2022-10-10T22:41:18.896Z,40.80
2022-10-10T22:43:47.381Z,42.20
2022-10-10T22:46:15.241Z,45.00
2022-10-10T22:48:43.588Z,35.70
2022-10-10T22:51:14.607Z,34.30
2022-10-10T22:53:44.496Z,39.50
2022-10-10T22:56:17.660Z,34.40
2022-10-10T22:58:46.561Z,34.20
2022-10-10T23:01:17.335Z,37.30
2022-10-10T23:03:45.624Z,48.40
2022-10-10T23:06:14.057Z,51.70
2022-10-10T23:08:41.967Z,63.10
2022-10-10T23:11:09.792Z,62.60
2022-10-10T23:13:37.633Z,58.00
2022-10-10T23:16:06.188Z,57.90
2022-10-10T23:18:34.410Z,57.30
2022-10-10T23:21:02.275Z,68.80
2022-10-10T23:23:30.070Z,53.00
2022-10-10T23:25:57.921Z,54.60
2022-10-10T23:28:25.927Z,60.40
2022-10-10T23:30:53.753Z,43.30
2022-10-10T23:33:21.643Z,44.90
2022-10-10T23:36:00.899Z,53.40
2022-10-10T23:38:29.347Z,62.30
2022-10-10T23:40:57.452Z,60.00
2022-10-10T23:43:25.481Z,65.10
2022-10-10T23:45:53.494Z,78.80
2022-10-10T23:48:21.384Z,53.10
2022-10-10T23:50:49.319Z,81.20
2022-10-10T23:53:17.306Z,77.80
2022-10-10T23:55:46.814Z,69.40
2022-10-10T23:58:15.419Z,63.30
